Time;durP1;ratioP1;P1;durP2;ratioP2;P2;SDS_P1;SDS_P2;PMS_P1;PMS_P2;Temp;Humidity;BMP_temperature;BMP_pressure;BME280_temperature;BME280_humidity;BME280_pressure;Samples;Min_cycle;Max_cycle;Signal;HPM_P1;HPM_P2
2021/10/14 00:00:02;;;;;;;8.97;2.20;;;23.00;59.60;;;;;;5226469;28;20045;-79
2021/10/14 00:02:35;;;;;;;;;;;23.00;59.50;;;;;;5224280;28;20491;-80
2021/10/14 00:05:11;;;;;;;3.70;1.85;;;22.90;59.60;;;;;;5229177;28;19931;-80
2021/10/14 00:07:44;;;;;;;3.17;1.63;;;22.90;59.50;;;;;;5229277;28;20053;-81
2021/10/14 00:10:16;;;;;;;3.87;1.57;;;22.90;59.50;;;;;;5227315;28;20524;-79
2021/10/14 00:12:49;;;;;;;3.97;1.60;;;22.90;59.50;;;;;;5230514;28;20417;-79
2021/10/14 00:15:22;;;;;;;2.50;1.55;;;22.90;59.50;;;;;;5212485;28;20045;-81
2021/10/14 00:17:55;;;;;;;4.70;1.63;;;22.90;59.50;;;;;;5216583;28;20036;-82
2021/10/14 00:20:28;;;;;;;4.57;1.70;;;22.90;59.50;;;;;;5195672;28;20056;-81
2021/10/14 00:23:00;;;;;;;2.25;1.55;;;22.90;59.50;;;;;;5227342;28;20429;-82
2021/10/14 00:25:33;;;;;;;4.57;1.33;;;22.90;59.50;;;;;;5228104;28;20509;-81
2021/10/14 00:28:06;;;;;;;2.55;1.52;;;22.90;59.50;;;;;;5209849;28;20444;-80
2021/10/14 00:30:38;;;;;;;2.47;1.33;;;22.90;59.50;;;;;;5234222;28;20048;-82
2021/10/14 00:33:11;;;;;;;3.10;1.60;;;22.90;59.50;;;;;;5235555;28;20036;-80
2021/10/14 00:35:43;;;;;;;2.65;1.98;;;22.90;59.50;;;;;;5234793;28;20057;-81
2021/10/14 00:38:16;;;;;;;3.50;1.40;;;22.90;59.50;;;;;;5224892;28;20481;-80
2021/10/14 00:40:49;;;;;;;4.00;1.60;;;22.90;59.50;;;;;;5239126;28;20055;-82
2021/10/14 00:43:21;;;;;;;2.20;1.87;;;22.90;59.50;;;;;;5237488;28;20048;-79
2021/10/14 00:45:54;;;;;;;3.03;1.77;;;22.90;59.50;;;;;;5218457;28;20878;-79
2021/10/14 00:48:27;;;;;;;3.07;1.53;;;22.90;59.50;;;;;;5236656;28;20098;-80
2021/10/14 00:50:59;;;;;;;2.38;1.30;;;22.90;59.50;;;;;;5219524;28;20061;-80
2021/10/14 00:53:33;;;;;;;6.18;1.65;;;22.90;59.60;;;;;;5221114;28;20048;-80
2021/10/14 00:56:07;;;;;;;5.03;1.80;;;22.90;59.60;;;;;;5236242;28;20044;-81
2021/10/14 00:58:39;;;;;;;3.85;1.50;;;22.90;59.60;;;;;;5234669;28;20301;-79
2021/10/14 01:01:12;;;;;;;5.45;1.50;;;22.90;59.60;;;;;;5212937;28;20044;-81
2021/10/14 01:03:45;;;;;;;4.70;1.77;;;22.90;59.60;;;;;;5234947;28;20048;-81
2021/10/14 01:06:18;;;;;;;4.32;1.67;;;22.90;59.70;;;;;;5219137;28;20044;-81
2021/10/14 01:08:51;;;;;;;6.57;1.42;;;22.90;59.70;;;;;;5215224;28;20059;-79
2021/10/14 01:11:24;;;;;;;3.83;1.88;;;22.90;59.70;;;;;;5234323;28;20052;-81
2021/10/14 01:13:56;;;;;;;6.25;2.00;;;22.90;59.60;;;;;;5232756;28;20049;-81
2021/10/14 01:16:29;;;;;;;3.03;1.87;;;22.90;59.60;;;;;;5234154;28;20032;-81
2021/10/14 01:19:01;;;;;;;4.43;1.90;;;22.90;59.60;;;;;;5217901;28;20074;-80
2021/10/14 01:21:34;;;;;;;4.07;1.67;;;22.90;59.60;;;;;;5228421;28;20045;-81
2021/10/14 01:24:07;;;;;;;6.07;1.43;;;22.90;59.50;;;;;;5217533;28;20037;-81
2021/10/14 01:26:40;;;;;;;4.10;1.60;;;22.90;59.50;;;;;;5234612;28;20078;-80
2021/10/14 01:29:13;;;;;;;3.50;1.58;;;22.90;60.10;;;;;;5234090;28;20045;-81
2021/10/14 01:31:46;;;;;;;6.63;1.30;;;22.90;59.40;;;;;;5216023;28;20064;-80
2021/10/14 01:34:18;;;;;;;5.32;1.75;;;22.90;59.40;;;;;;5231899;28;20490;-80
2021/10/14 01:36:50;;;;;;;3.22;1.50;;;22.90;59.40;;;;;;5233016;28;20428;-80
2021/10/14 01:39:23;;;;;;;3.63;1.60;;;22.90;59.40;;;;;;5233251;28;20048;-82
2021/10/14 01:41:56;;;;;;;2.17;1.48;;;22.90;59.30;;;;;;5229511;28;20176;-81
2021/10/14 01:44:28;;;;;;;3.40;1.70;;;22.90;59.30;;;;;;5232807;28;20414;-81
2021/10/14 01:47:01;;;;;;;2.13;1.48;;;22.90;59.30;;;;;;5230985;28;20306;-82
2021/10/14 01:49:33;;;;;;;6.95;1.70;;;22.80;59.30;;;;;;5230851;28;20052;-82
2021/10/14 01:52:05;;;;;;;2.30;1.10;;;22.90;59.30;;;;;;5232081;28;20048;-81
2021/10/14 01:54:38;;;;;;;3.17;1.58;;;22.80;59.20;;;;;;5228036;28;20051;-82
2021/10/14 01:57:10;;;;;;;2.50;1.63;;;22.90;59.30;;;;;;5229619;28;20056;-80
2021/10/14 01:59:43;;;;;;;3.73;1.60;;;22.90;59.30;;;;;;5212378;28;20036;-82
2021/10/14 02:02:16;;;;;;;3.60;1.65;;;22.90;59.30;;;;;;5230620;28;20092;-79
2021/10/14 02:04:48;;;;;;;3.10;1.50;;;22.80;59.20;;;;;;5233995;28;20040;-82
2021/10/14 02:07:21;;;;;;;4.90;1.40;;;22.80;59.20;;;;;;5215460;28;20294;-82
2021/10/14 02:09:53;;;;;;;2.13;1.30;;;22.80;59.20;;;;;;5216859;28;20052;-80
2021/10/14 02:12:27;;;;;;;2.30;1.23;;;22.80;59.20;;;;;;5229199;28;20044;-80
2021/10/14 02:14:59;;;;;;;;;;;22.80;59.20;;;;;;5230584;28;20304;-81
2021/10/14 02:17:32;;;;;;;4.50;1.50;;;22.80;59.20;;;;;;5229178;28;20512;-80
2021/10/14 02:20:06;;;;;;;4.25;1.65;;;22.80;59.30;;;;;;5213635;28;20043;-80
2021/10/14 02:22:39;;;;;;;2.78;1.40;;;22.80;59.20;;;;;;5233715;28;20048;-80
2021/10/14 02:25:14;;;;;;;2.50;1.60;;;22.80;59.20;;;;;;5216693;28;20044;-82
2021/10/14 02:27:46;;;;;;;2.28;1.33;;;22.80;59.20;;;;;;5210068;28;20305;-81
2021/10/14 02:30:19;;;;;;;3.90;1.63;;;22.80;59.20;;;;;;5211659;28;20429;-80
2021/10/14 02:32:51;;;;;;;2.92;1.50;;;22.80;59.20;;;;;;5226504;28;20306;-81
2021/10/14 02:35:24;;;;;;;5.55;1.35;;;22.80;59.80;;;;;;5227317;28;20040;-79
2021/10/14 02:37:56;;;;;;;3.65;1.70;;;22.80;59.20;;;;;;5211920;28;20487;-83
2021/10/14 02:40:29;;;;;;;4.77;1.70;;;22.80;59.10;;;;;;5213471;28;20528;-80
2021/10/14 02:43:02;;;;;;;2.83;1.55;;;22.80;59.10;;;;;;5197402;28;20047;-80
2021/10/14 02:45:35;;;;;;;2.70;1.38;;;22.80;59.10;;;;;;5181328;28;20037;-81
2021/10/14 02:48:07;;;;;;;3.70;1.65;;;22.80;59.10;;;;;;5191805;28;20059;-81
2021/10/14 02:50:40;;;;;;;4.38;1.95;;;22.80;59.10;;;;;;5179406;28;20063;-82
2021/10/14 02:53:13;;;;;;;5.67;1.40;;;22.80;59.10;;;;;;5191510;28;20059;-81
2021/10/14 02:55:46;;;;;;;6.88;1.52;;;22.80;59.10;;;;;;5209746;28;20667;-79
2021/10/14 02:58:18;;;;;;;5.57;1.47;;;22.80;59.10;;;;;;5197115;28;20052;-79
2021/10/14 03:00:51;;;;;;;3.45;1.40;;;22.80;59.10;;;;;;5215896;28;20322;-83
2021/10/14 03:03:23;;;;;;;3.83;1.23;;;22.80;59.10;;;;;;5222604;28;20040;-81
2021/10/14 03:05:56;;;;;;;1.70;1.30;;;22.80;59.00;;;;;;5230674;28;20044;-81
2021/10/14 03:08:28;;;;;;;2.42;1.25;;;22.80;59.10;;;;;;5216137;28;20147;-80
2021/10/14 03:11:01;;;;;;;2.07;1.40;;;22.80;59.00;;;;;;5234439;28;20054;-84
2021/10/14 03:13:34;;;;;;;3.17;1.35;;;22.80;59.00;;;;;;5217322;28;20500;-85
2021/10/14 03:16:07;;;;;;;5.28;1.58;;;22.80;59.00;;;;;;5237719;28;20049;-85
2021/10/14 03:18:42;;;;;;;3.95;1.52;;;22.80;59.00;;;;;;5217370;28;20490;-85
2021/10/14 03:21:16;;;;;;;2.65;1.13;;;22.80;59.00;;;;;;5185771;28;20044;-85
2021/10/14 03:23:50;;;;;;;2.55;1.05;;;22.80;59.00;;;;;;5234364;28;20387;-85
2021/10/14 03:26:22;;;;;;;2.45;1.02;;;22.80;59.60;;;;;;5255209;28;20047;-86
2021/10/14 03:28:56;;;;;;;5.07;1.73;;;22.80;58.90;;;;;;5219141;28;20048;-85
2021/10/14 03:31:28;;;;;;;;;;;22.80;58.90;;;;;;5210871;28;20513;-85
2021/10/14 03:34:00;;;;;;;2.03;1.40;;;22.80;58.90;;;;;;5214706;28;20290;-85
2021/10/14 03:36:33;;;;;;;3.83;1.87;;;22.80;59.00;;;;;;5218672;28;20055;-85
2021/10/14 03:39:06;;;;;;;2.25;1.20;;;22.80;59.00;;;;;;5219150;28;20512;-85
2021/10/14 03:41:38;;;;;;;2.92;1.25;;;22.80;58.90;;;;;;5204929;28;20056;-85
2021/10/14 03:44:13;;;;;;;4.38;1.40;;;22.80;58.90;;;;;;5203461;28;20063;-84
2021/10/14 03:46:46;;;;;;;2.05;1.33;;;22.80;58.90;;;;;;5233807;28;20059;-85
2021/10/14 03:49:19;;;;;;;4.38;1.83;;;22.80;58.90;;;;;;5201012;28;20383;-85
2021/10/14 03:51:51;;;;;;;1.88;1.42;;;22.80;58.90;;;;;;5201293;28;20057;-85
2021/10/14 03:54:24;;;;;;;1.92;1.20;;;22.80;58.90;;;;;;5224389;28;20417;-85
2021/10/14 03:56:56;;;;;;;3.78;1.33;;;22.80;58.90;;;;;;5225354;28;20049;-85
2021/10/14 03:59:29;;;;;;;2.22;1.20;;;22.80;58.80;;;;;;5234968;28;20048;-85
2021/10/14 04:02:01;;;;;;;3.97;1.83;;;22.80;58.80;;;;;;5232915;28;20056;-85
2021/10/14 04:04:34;;;;;;;1.63;1.25;;;22.80;58.80;;;;;;5209127;28;20049;-85
2021/10/14 04:07:07;;;;;;;6.15;2.22;;;22.70;58.80;;;;;;5215463;28;20056;-84
2021/10/14 04:09:39;;;;;;;1.33;1.15;;;22.80;58.80;;;;;;5214276;28;21098;-85
2021/10/14 04:12:12;;;;;;;2.60;1.20;;;22.80;58.80;;;;;;5218424;28;20051;-85
2021/10/14 04:14:44;;;;;;;1.60;1.17;;;22.80;58.70;;;;;;5240376;28;20041;-85
2021/10/14 04:17:17;;;;;;;2.58;1.48;;;22.80;58.80;;;;;;5222502;28;20047;-85
2021/10/14 04:19:50;;;;;;;2.25;1.30;;;22.80;58.70;;;;;;5199068;28;20838;-85
2021/10/14 04:22:22;;;;;;;1.77;1.48;;;22.80;58.70;;;;;;5217166;28;20052;-86
2021/10/14 04:24:55;;;;;;;1.15;1.05;;;22.80;58.70;;;;;;5211560;28;20386;-85
2021/10/14 04:27:27;;;;;;;6.00;1.30;;;22.80;58.70;;;;;;5213891;28;20048;-85
2021/10/14 04:30:00;;;;;;;2.33;1.42;;;22.80;58.70;;;;;;5214392;28;20367;-86
2021/10/14 04:32:33;;;;;;;2.60;1.30;;;22.80;58.80;;;;;;5231161;28;20040;-86
2021/10/14 04:35:06;;;;;;;2.28;1.25;;;22.80;58.70;;;;;;5231769;28;20040;-85
2021/10/14 04:37:43;;;;;;;2.65;1.23;;;22.80;58.70;;;;;;5235109;28;20365;-84
2021/10/14 04:40:15;;;;;;;2.35;1.30;;;22.80;58.60;;;;;;5218024;28;20051;-85
2021/10/14 04:42:48;;;;;;;3.20;1.35;;;22.80;58.60;;;;;;5216927;28;20111;-85
2021/10/14 04:45:21;;;;;;;2.33;1.10;;;22.80;58.60;;;;;;5208700;28;20546;-85
2021/10/14 04:47:53;;;;;;;2.05;1.23;;;22.80;58.60;;;;;;5196737;28;20056;-85
2021/10/14 04:50:26;;;;;;;1.45;1.13;;;22.80;58.60;;;;;;5217104;28;20052;-86
2021/10/14 04:52:58;;;;;;;2.27;1.20;;;22.90;58.60;;;;;;5214820;28;20040;-85
2021/10/14 04:55:34;;;;;;;3.22;1.38;;;22.90;58.70;;;;;;5227251;28;20157;-85
2021/10/14 04:58:07;;;;;;;4.50;1.42;;;22.90;58.70;;;;;;5209231;28;20773;-86
2021/10/14 05:00:39;;;;;;;3.40;1.30;;;22.90;58.70;;;;;;5225617;28;20486;-85
2021/10/14 05:03:12;;;;;;;5.57;1.87;;;22.90;58.70;;;;;;5206162;28;20463;-85
2021/10/14 05:05:46;;;;;;;3.83;1.10;;;22.90;58.70;;;;;;5205049;28;20541;-85
2021/10/14 05:08:19;;;;;;;1.92;1.52;;;22.90;58.70;;;;;;5192542;28;20044;-85
2021/10/14 05:10:51;;;;;;;4.68;1.95;;;22.90;59.00;;;;;;5226696;28;20055;-85
2021/10/14 05:13:27;;;;;;;5.53;1.80;;;22.90;59.10;;;;;;5220870;28;20394;-83
2021/10/14 05:15:59;;;;;;;10.93;1.80;;;23.00;59.20;;;;;;5222905;28;20235;-83
2021/10/14 05:18:32;;;;;;;7.00;1.73;;;23.00;59.30;;;;;;5211193;28;20041;-84
2021/10/14 05:21:05;;;;;;;12.07;2.30;;;23.00;59.40;;;;;;5225860;28;20040;-84
2021/10/14 05:23:37;;;;;;;20.63;2.90;;;23.00;59.50;;;;;;5228880;28;20067;-84
2021/10/14 05:26:10;;;;;;;18.58;3.25;;;23.00;60.20;;;;;;5231753;28;20052;-83
2021/10/14 05:28:42;;;;;;;19.38;2.83;;;23.00;59.70;;;;;;5224842;28;20044;-83
2021/10/14 05:31:15;;;;;;;14.10;2.25;;;23.00;59.60;;;;;;5228113;28;20060;-84
2021/10/14 05:33:47;;;;;;;11.23;2.88;;;23.00;59.60;;;;;;5207038;28;20056;-82
2021/10/14 05:36:21;;;;;;;13.70;2.50;;;23.00;59.50;;;;;;5227990;28;20066;-83
2021/10/14 05:38:53;;;;;;;;;;;23.00;59.50;;;;;;5221518;28;20056;-83
2021/10/14 05:41:26;;;;;;;9.45;1.88;;;23.00;59.80;;;;;;5225320;28;20400;-83
2021/10/14 05:43:58;;;;;;;8.52;2.30;;;23.00;59.50;;;;;;5222726;28;20053;-84
2021/10/14 05:46:31;;;;;;;9.57;2.25;;;23.00;60.20;;;;;;5206057;28;20564;-83
2021/10/14 05:49:03;;;;;;;18.58;2.42;;;23.00;59.50;;;;;;5232223;28;20051;-83
2021/10/14 05:51:36;;;;;;;9.15;2.13;;;23.00;59.40;;;;;;5248019;28;20048;-83
2021/10/14 05:54:08;;;;;;;5.40;2.15;;;23.00;59.40;;;;;;5228159;28;20517;-83
2021/10/14 05:56:41;;;;;;;7.35;2.13;;;23.00;59.30;;;;;;5216401;28;20490;-84
2021/10/14 05:59:13;;;;;;;5.35;1.88;;;23.00;59.30;;;;;;5219315;28;20037;-84
2021/10/14 06:01:46;;;;;;;4.47;2.10;;;23.00;59.20;;;;;;5217458;28;20053;-84
2021/10/14 06:04:19;;;;;;;6.28;2.33;;;23.00;59.20;;;;;;5222522;28;20055;-83
2021/10/14 06:06:51;;;;;;;7.35;2.20;;;23.00;59.10;;;;;;5208991;28;20057;-83
2021/10/14 06:09:24;;;;;;;8.43;2.13;;;23.00;59.10;;;;;;5213326;28;20052;-83
2021/10/14 06:11:56;;;;;;;5.57;1.90;;;23.00;59.00;;;;;;5226099;28;20417;-83
2021/10/14 06:14:29;;;;;;;5.32;1.83;;;23.00;59.00;;;;;;5220425;28;20060;-83
2021/10/14 06:17:01;;;;;;;4.93;1.60;;;23.00;59.00;;;;;;5232197;28;20076;-83
2021/10/14 06:19:34;;;;;;;7.55;2.20;;;23.10;59.00;;;;;;5209257;28;20032;-82
2021/10/14 06:22:06;;;;;;;5.63;1.58;;;23.00;58.90;;;;;;5204008;28;20048;-83
2021/10/14 06:24:38;;;;;;;12.70;2.13;;;23.10;59.00;;;;;;5224968;28;20100;-83
2021/10/14 06:27:11;;;;;;;5.60;1.63;;;23.00;58.90;;;;;;5227396;28;20044;-83
2021/10/14 06:29:44;;;;;;;7.45;2.40;;;23.00;58.80;;;;;;5226434;28;20048;-83
2021/10/14 06:32:20;;;;;;;5.63;1.75;;;23.00;58.80;;;;;;5200394;28;20052;-83
2021/10/14 06:34:53;;;;;;;4.88;1.90;;;23.00;58.80;;;;;;5220047;28;20096;-81
2021/10/14 06:37:26;;;;;;;4.75;2.13;;;23.10;58.80;;;;;;5225742;28;20044;-84
2021/10/14 06:39:58;;;;;;;6.50;1.63;;;23.00;58.80;;;;;;5219588;28;21385;-83
2021/10/14 06:42:31;;;;;;;4.47;1.67;;;23.00;58.70;;;;;;5223116;28;20493;-83
2021/10/14 06:45:07;;;;;;;2.78;1.60;;;23.10;58.80;;;;;;5220783;28;20536;-84
2021/10/14 06:47:39;;;;;;;5.10;1.75;;;23.10;58.70;;;;;;5225457;28;20576;-84
2021/10/14 06:50:11;;;;;;;6.25;1.90;;;23.10;58.70;;;;;;5209430;28;20056;-83
2021/10/14 06:52:44;;;;;;;9.60;1.70;;;23.10;58.60;;;;;;5210686;28;20045;-82
2021/10/14 06:55:16;;;;;;;3.30;1.70;;;23.10;58.60;;;;;;5212772;28;20055;-84
2021/10/14 06:57:49;;;;;;;4.75;1.70;;;23.10;58.60;;;;;;5229749;28;20056;-84
2021/10/14 07:00:24;;;;;;;2.40;1.50;;;23.00;58.60;;;;;;5227160;28;20045;-83
2021/10/14 07:02:57;;;;;;;2.80;1.40;;;23.00;58.60;;;;;;5226518;28;20059;-83
2021/10/14 07:05:29;;;;;;;2.87;1.67;;;23.10;58.60;;;;;;5215795;28;20044;-84
2021/10/14 07:08:02;;;;;;;6.65;1.52;;;23.10;58.60;;;;;;5216892;28;20310;-83
2021/10/14 07:10:35;;;;;;;5.50;1.90;;;23.10;58.60;;;;;;5222554;28;20065;-83
2021/10/14 07:13:08;;;;;;;4.88;2.70;;;23.10;58.60;;;;;;5225238;28;20055;-83
2021/10/14 07:15:43;;;;;;;4.22;1.70;;;23.10;58.60;;;;;;5217574;28;20053;-82
2021/10/14 07:18:15;;;;;;;3.30;1.30;;;23.10;58.60;;;;;;5229491;28;20434;-83
2021/10/14 07:20:49;;;;;;;2.53;1.48;;;23.10;58.60;;;;;;5218755;28;20496;-83
2021/10/14 07:23:21;;;;;;;4.55;1.65;;;23.10;58.50;;;;;;5215704;28;20048;-83
2021/10/14 07:25:54;;;;;;;3.42;1.73;;;23.10;58.50;;;;;;5214292;28;20049;-83
2021/10/14 07:28:27;;;;;;;3.67;1.60;;;23.10;58.50;;;;;;5229132;28;20036;-83
2021/10/14 07:30:59;;;;;;;5.40;2.15;;;23.00;58.40;;;;;;5203790;28;20044;-84
2021/10/14 07:33:32;;;;;;;4.13;1.63;;;23.10;58.50;;;;;;5222143;28;20059;-83
2021/10/14 07:36:06;;;;;;;3.25;1.65;;;23.10;58.40;;;;;;5225492;28;20488;-83
2021/10/14 07:38:39;;;;;;;1.98;1.35;;;23.10;58.40;;;;;;5221627;28;20056;-84
2021/10/14 07:41:11;;;;;;;5.82;1.60;;;23.10;58.40;;;;;;5225831;28;20044;-83
2021/10/14 07:43:44;;;;;;;2.65;1.30;;;23.10;58.40;;;;;;5192221;28;20063;-84
2021/10/14 07:46:17;;;;;;;1.38;1.23;;;23.10;58.40;;;;;;5222472;28;20494;-84
2021/10/14 07:48:49;;;;;;;3.55;1.45;;;23.10;58.40;;;;;;5213696;28;20040;-83
2021/10/14 07:51:22;;;;;;;2.58;1.40;;;23.10;58.40;;;;;;5212523;28;20418;-83
2021/10/14 07:53:55;;;;;;;1.77;1.25;;;23.10;58.40;;;;;;5201205;28;20079;-84
2021/10/14 07:56:28;;;;;;;2.35;1.55;;;23.10;58.40;;;;;;5202016;28;20052;-83
2021/10/14 07:59:00;;;;;;;1.80;1.43;;;23.10;58.50;;;;;;5184667;28;20051;-83
2021/10/14 08:01:33;;;;;;;4.22;1.52;;;23.10;58.30;;;;;;5225085;28;20306;-83
2021/10/14 08:04:08;;;;;;;6.72;1.60;;;23.10;58.30;;;;;;5188453;28;20048;-83
2021/10/14 08:06:41;;;;;;;5.35;1.58;;;23.10;58.30;;;;;;5223923;28;20051;-84
2021/10/14 08:09:13;;;;;;;2.53;1.33;;;23.10;58.30;;;;;;5206341;28;20051;-83
2021/10/14 08:11:46;;;;;;;2.53;1.38;;;23.10;58.30;;;;;;5221577;28;20306;-84
2021/10/14 08:14:19;;;;;;;2.55;1.38;;;23.10;58.30;;;;;;5202793;28;20052;-83
2021/10/14 08:16:51;;;;;;;1.75;1.25;;;23.20;58.30;;;;;;5213885;28;20060;-83
2021/10/14 08:19:25;;;;;;;2.73;1.80;;;23.10;58.20;;;;;;5227243;28;20037;-83
2021/10/14 08:21:57;;;;;;;4.35;1.42;;;23.20;58.30;;;;;;5227561;28;20056;-84
2021/10/14 08:24:30;;;;;;;2.28;1.60;;;23.10;58.20;;;;;;5219989;28;20513;-83
2021/10/14 08:27:04;;;;;;;3.43;1.63;;;23.10;58.30;;;;;;5204965;28;20040;-83
2021/10/14 08:29:36;;;;;;;4.57;1.55;;;23.10;58.20;;;;;;5210423;28;21024;-83
2021/10/14 08:32:09;;;;;;;4.22;1.33;;;23.20;58.30;;;;;;5215901;28;20503;-83
2021/10/14 08:34:41;;;;;;;3.58;1.30;;;23.10;58.20;;;;;;5216876;28;20048;-83
2021/10/14 08:37:20;;;;;;;2.95;1.38;;;23.10;58.30;;;;;;5230084;28;20052;-83
2021/10/14 08:39:53;;;;;;;1.70;1.08;;;23.20;58.30;;;;;;5202924;28;20059;-82
2021/10/14 08:42:26;;;;;;;2.25;1.35;;;23.10;58.20;;;;;;5232870;28;20055;-82
2021/10/14 08:45:03;;;;;;;2.40;1.50;;;23.10;58.20;;;;;;5214177;28;20425;-83
2021/10/14 08:47:37;;;;;;;3.80;1.27;;;23.10;58.30;;;;;;5197000;28;20048;-83
2021/10/14 08:50:10;;;;;;;2.55;1.40;;;23.20;58.30;;;;;;5197122;28;20069;-82
2021/10/14 08:52:43;;;;;;;;;;;23.10;58.30;;;;;;5191759;28;20426;-83
2021/10/14 08:55:15;;;;;;;4.47;1.25;;;23.10;58.30;;;;;;5211593;28;19925;-82
2021/10/14 08:57:48;;;;;;;2.58;1.35;;;23.10;58.30;;;;;;5186303;28;20288;-82
2021/10/14 09:00:20;;;;;;;1.63;1.25;;;23.20;58.40;;;;;;5218924;28;20033;-82
2021/10/14 09:02:53;;;;;;;5.63;1.00;;;23.20;58.40;;;;;;5199293;28;20052;-82
2021/10/14 09:05:29;;;;;;;1.77;1.20;;;23.10;58.30;;;;;;5212111;28;20041;-82
2021/10/14 09:08:02;;;;;;;3.05;1.23;;;23.10;58.30;;;;;;5214475;28;20048;-82
2021/10/14 09:10:34;;;;;;;1.77;1.30;;;23.10;58.30;;;;;;5212355;28;20059;-84
2021/10/14 09:13:16;;;;;;;2.30;1.70;;;23.20;58.40;;;;;;5210703;28;20052;-83
2021/10/14 09:15:48;;;;;;;2.17;1.10;;;23.20;58.40;;;;;;5211290;28;20506;-83
2021/10/14 09:18:25;;;;;;;2.63;1.37;;;23.20;58.40;;;;;;5226970;28;20053;-82
2021/10/14 09:20:58;;;;;;;2.90;1.20;;;23.20;58.30;;;;;;5213572;28;20303;-83
2021/10/14 09:23:30;;;;;;;2.05;1.35;;;23.20;58.40;;;;;;5210528;28;20361;-83
2021/10/14 09:26:02;;;;;;;2.00;1.30;;;23.20;58.40;;;;;;5212472;28;20041;-82
2021/10/14 09:28:35;;;;;;;2.85;1.23;;;23.20;58.30;;;;;;5215618;28;20047;-83
2021/10/14 09:31:08;;;;;;;2.72;1.55;;;23.20;58.30;;;;;;5191694;28;20045;-84
2021/10/14 09:33:43;;;;;;;3.13;1.40;;;23.20;58.30;;;;;;5197434;28;20498;-83
2021/10/14 09:36:19;;;;;;;1.73;1.50;;;23.20;58.30;;;;;;5211190;28;20053;-85
2021/10/14 09:39:02;;;;;;;4.65;1.48;;;23.20;58.30;;;;;;5214343;28;20061;-85
2021/10/14 09:41:40;;;;;;;4.70;1.20;;;23.20;58.20;;;;;;5196244;28;20037;-83
2021/10/14 09:44:15;;;;;;;2.03;0.95;;;23.20;58.30;;;;;;5215374;28;20045;-84
2021/10/14 09:46:51;;;;;;;2.67;1.38;;;23.20;58.30;;;;;;5231439;28;20048;-83
2021/10/14 09:49:32;;;;;;;2.65;1.30;;;23.20;58.30;;;;;;5218929;28;20055;-82
2021/10/14 09:52:05;;;;;;;3.58;1.08;;;23.20;58.30;;;;;;5237578;28;20049;-83
2021/10/14 09:54:37;;;;;;;3.00;1.27;;;23.20;58.30;;;;;;5235263;28;20063;-84
2021/10/14 09:57:10;;;;;;;2.75;1.08;;;23.20;58.30;;;;;;5218310;28;20052;-83
2021/10/14 09:59:45;;;;;;;1.80;1.13;;;23.20;58.30;;;;;;5216663;28;20052;-83
2021/10/14 10:02:18;;;;;;;1.30;1.02;;;23.20;58.40;;;;;;5233979;28;20044;-83
2021/10/14 10:04:52;;;;;;;1.50;1.10;;;23.20;58.30;;;;;;5234286;28;20048;-84
2021/10/14 10:07:24;;;;;;;2.03;1.20;;;23.20;58.30;;;;;;5230779;28;20063;-83
2021/10/14 10:09:57;;;;;;;1.73;0.90;;;23.20;58.30;;;;;;5231975;28;20048;-83
2021/10/14 10:12:30;;;;;;;2.05;0.85;;;23.20;58.30;;;;;;5215698;28;20053;-83
2021/10/14 10:15:03;;;;;;;4.03;1.40;;;23.20;58.30;;;;;;5207510;28;20051;-83
2021/10/14 10:17:41;;;;;;;1.95;1.23;;;23.20;58.30;;;;;;5213126;28;20051;-83
2021/10/14 10:20:37;;;;;;;1.67;1.05;;;23.20;58.40;;;;;;5235669;28;20453;-84
2021/10/14 10:23:09;;;;;;;2.55;1.10;;;23.20;58.30;;;;;;5215125;28;20324;-84
2021/10/14 10:25:43;;;;;;;3.53;1.10;;;23.20;58.30;;;;;;5234297;28;20068;-83
2021/10/14 10:28:37;;;;;;;1.55;1.10;;;23.20;58.30;;;;;;5232736;28;20528;-83
2021/10/14 10:31:10;;;;;;;1.80;0.90;;;23.20;58.30;;;;;;5231457;28;20060;-82
2021/10/14 10:34:02;;;;;;;4.83;1.07;;;23.20;58.30;;;;;;5234798;28;20611;-82
2021/10/14 10:36:53;;;;;;;2.38;1.10;;;23.20;58.30;;;;;;5232285;28;20500;-82
2021/10/14 10:39:46;;;;;;;1.70;1.17;;;23.20;58.30;;;;;;5234219;28;20048;-84
2021/10/14 10:42:27;;;;;;;2.28;1.58;;;23.20;58.30;;;;;;5190408;28;20590;-83
2021/10/14 10:45:13;;;;;;;1.67;0.93;;;23.20;58.30;;;;;;5209398;28;20056;-83
2021/10/14 10:47:56;;;;;;;1.13;1.02;;;23.20;58.30;;;;;;5228399;28;20048;-82
2021/10/14 10:50:28;;;;;;;2.27;1.00;;;23.20;58.30;;;;;;5232800;28;20075;-82
2021/10/14 10:53:07;;;;;;;1.65;1.25;;;23.30;58.30;;;;;;5213250;28;20486;-83
2021/10/14 10:55:50;;;;;;;1.15;1.05;;;23.30;58.30;;;;;;5228087;28;20505;-82
2021/10/14 10:58:29;;;;;;;2.05;1.45;;;23.30;58.30;;;;;;5215844;28;20402;-83
2021/10/14 11:01:02;;;;;;;5.10;1.05;;;23.30;58.30;;;;;;5250042;28;20055;-83
2021/10/14 11:03:35;;;;;;;3.17;1.23;;;23.30;58.20;;;;;;5211548;28;20402;-83
2021/10/14 11:06:10;;;;;;;1.20;1.00;;;23.40;58.20;;;;;;5229812;28;20036;-83
2021/10/14 11:08:42;;;;;;;1.10;1.00;;;23.40;58.20;;;;;;5235128;28;20415;-83
2021/10/14 11:11:18;;;;;;;1.85;1.27;;;23.50;58.20;;;;;;5236334;28;20040;-83
2021/10/14 11:13:53;;;;;;;1.92;1.10;;;23.60;58.00;;;;;;5208536;28;20052;-82
2021/10/14 11:16:30;;;;;;;1.00;0.90;;;23.60;58.00;;;;;;5229050;28;20056;-84
2021/10/14 11:19:03;;;;;;;2.13;1.17;;;23.60;57.90;;;;;;5239313;28;20406;-83
2021/10/14 11:21:43;;;;;;;1.13;1.00;;;23.70;57.80;;;;;;5206155;28;20036;-84
2021/10/14 11:24:17;;;;;;;2.47;1.20;;;23.70;57.70;;;;;;5225250;28;20045;-85
2021/10/14 11:26:50;;;;;;;1.38;1.10;;;23.70;57.70;;;;;;5224309;28;20062;-84
2021/10/14 11:29:26;;;;;;;2.67;1.00;;;23.80;57.60;;;;;;5220558;28;20047;-83
2021/10/14 11:32:03;;;;;;;1.67;0.80;;;23.90;57.50;;;;;;5212815;28;20044;-82
2021/10/14 11:34:37;;;;;;;1.23;1.13;;;23.90;57.40;;;;;;5227917;28;20048;-83
2021/10/14 11:37:11;;;;;;;0.93;0.82;;;24.00;57.40;;;;;;5222874;28;20087;-82
2021/10/14 11:39:48;;;;;;;2.45;1.00;;;24.00;57.30;;;;;;5201899;28;20452;-83
2021/10/14 11:42:21;;;;;;;1.00;0.90;;;24.00;57.20;;;;;;5213658;28;20441;-81
2021/10/14 11:44:58;;;;;;;1.63;1.10;;;24.10;57.20;;;;;;5219233;28;20049;-83
2021/10/14 11:47:30;;;;;;;2.95;1.10;;;24.10;57.10;;;;;;5214504;28;20047;-83
2021/10/14 11:50:06;;;;;;;1.83;1.05;;;24.10;57.10;;;;;;5207008;28;20049;-82
2021/10/14 11:52:38;;;;;;;1.17;0.98;;;24.10;57.10;;;;;;5231532;28;20063;-83
2021/10/14 11:55:11;;;;;;;1.08;0.95;;;24.20;57.10;;;;;;5228843;28;20048;-84
2021/10/14 11:57:45;;;;;;;2.88;1.10;;;24.10;57.00;;;;;;5226400;28;20048;-83
2021/10/14 12:00:18;;;;;;;1.50;1.17;;;24.10;57.00;;;;;;5229128;28;20056;-83
2021/10/14 12:02:51;;;;;;;3.50;0.90;;;24.20;57.00;;;;;;5215408;28;20048;-82
2021/10/14 12:05:24;;;;;;;1.13;0.80;;;24.20;56.90;;;;;;5225279;28;20043;-82
2021/10/14 12:07:57;;;;;;;2.97;1.08;;;24.20;56.90;;;;;;5212787;28;20048;-83
2021/10/14 12:10:39;;;;;;;4.50;1.42;;;24.20;56.90;;;;;;5215777;28;21216;-83
2021/10/14 12:13:15;;;;;;;3.55;0.90;;;24.20;56.80;;;;;;5214380;28;20055;-82
2021/10/14 12:15:48;;;;;;;6.07;1.30;;;24.30;56.90;;;;;;5194706;28;20521;-83
2021/10/14 12:18:27;;;;;;;3.43;1.27;;;24.30;56.90;;;;;;5194711;28;20509;-84
2021/10/14 12:21:31;;;;;;;3.65;0.98;;;24.30;56.90;;;;;;5211401;28;20044;-82
2021/10/14 12:24:29;;;;;;;1.52;0.90;;;24.40;56.80;;;;;;5190967;28;20049;-82
2021/10/14 12:27:03;;;;;;;2.67;1.00;;;24.30;56.80;;;;;;5216405;28;20504;-82
2021/10/14 12:29:43;;;;;;;2.25;1.02;;;24.30;56.90;;;;;;5217658;28;20443;-83
2021/10/14 12:32:21;;;;;;;1.65;1.05;;;24.20;56.90;;;;;;5213136;28;20071;-83
2021/10/14 12:34:59;;;;;;;1.75;0.93;;;24.20;57.00;;;;;;5225991;28;20045;-83
2021/10/14 12:37:33;;;;;;;2.30;1.00;;;24.20;57.40;;;;;;5224862;28;20057;-83
2021/10/14 12:40:23;;;;;;;5.38;1.05;;;24.10;57.00;;;;;;5199651;28;20060;-82
2021/10/14 12:43:14;;;;;;;2.20;1.10;;;24.10;57.00;;;;;;5197068;28;20059;-82
2021/10/14 12:48:34;;;;;;;4.18;1.30;;;24.00;57.20;;;;;;5215475;28;20036;-83
2021/10/14 12:51:24;;;;;;;2.58;1.10;;;24.00;57.40;;;;;;5219816;28;20049;-84
2021/10/14 12:54:02;;;;;;;2.75;1.10;;;23.90;57.40;;;;;;5208934;28;20449;-83
2021/10/14 12:56:38;;;;;;;4.53;1.08;;;23.90;57.50;;;;;;5205628;28;20052;-81
2021/10/14 12:59:12;;;;;;;3.75;1.00;;;23.90;57.50;;;;;;5210819;28;20056;-82
2021/10/14 13:01:47;;;;;;;1.77;1.00;;;23.80;57.50;;;;;;5217751;28;20048;-80
2021/10/14 13:04:21;;;;;;;4.95;1.65;;;23.80;57.60;;;;;;5220679;28;20040;-82
2021/10/14 13:06:54;;;;;;;3.97;1.10;;;23.80;57.50;;;;;;5203716;28;20056;-83
2021/10/14 13:09:29;;;;;;;4.97;1.08;;;23.80;57.50;;;;;;5196854;28;20049;-81
2021/10/14 13:12:03;;;;;;;2.70;1.20;;;23.80;57.50;;;;;;5231876;28;20049;-82
2021/10/14 13:14:38;;;;;;;;;;;23.70;57.50;;;;;;5220707;28;20044;-81
2021/10/14 13:17:11;;;;;;;1.90;1.08;;;23.70;57.50;;;;;;5214501;28;19928;-83
2021/10/14 13:19:43;;;;;;;3.70;1.02;;;23.70;57.60;;;;;;5199952;28;20743;-82
2021/10/14 13:22:16;;;;;;;6.63;1.40;;;23.70;57.50;;;;;;5194543;28;20045;-83
2021/10/14 13:24:48;;;;;;;9.85;1.55;;;23.70;57.60;;;;;;5184866;28;20394;-82